sensor_id;sensor_type;location;lat;lon;timestamp;P1;durP1;ratioP1;P2;durP2;ratioP2
57790;SDS011;43621;51.798;21.588;2023-05-24T00:00:32;10.40;;;6.00;;
57790;SDS011;43621;51.798;21.588;2023-05-24T00:04:53;10.80;;;5.90;;
57790;SDS011;43621;51.798;21.588;2023-05-24T00:08:55;9.40;;;6.00;;
57790;SDS011;43621;51.798;21.588;2023-05-24T00:12:57;8.90;;;6.20;;
57790;SDS011;43621;51.798;21.588;2023-05-24T00:16:59;7.70;;;5.60;;
57790;SDS011;43621;51.798;21.588;2023-05-24T00:21:01;9.90;;;5.80;;
57790;SDS011;43621;51.798;21.588;2023-05-24T00:25:02;11.50;;;5.90;;
57790;SDS011;43621;51.798;21.588;2023-05-24T00:29:05;9.80;;;6.60;;
57790;SDS011;43621;51.798;21.588;2023-05-24T00:33:07;8.50;;;5.60;;
57790;SDS011;43621;51.798;21.588;2023-05-24T00:37:09;8.40;;;5.60;;
57790;SDS011;43621;51.798;21.588;2023-05-24T00:41:10;8.10;;;5.50;;
57790;SDS011;43621;51.798;21.588;2023-05-24T00:45:12;7.20;;;5.20;;
57790;SDS011;43621;51.798;21.588;2023-05-24T00:49:14;8.30;;;5.60;;
57790;SDS011;43621;51.798;21.588;2023-05-24T00:53:16;10.40;;;5.60;;
57790;SDS011;43621;51.798;21.588;2023-05-24T00:57:18;6.90;;;5.50;;
57790;SDS011;43621;51.798;21.588;2023-05-24T01:01:20;10.70;;;6.10;;
57790;SDS011;43621;51.798;21.588;2023-05-24T01:05:31;11.50;;;5.90;;
57790;SDS011;43621;51.798;21.588;2023-05-24T01:09:38;8.60;;;5.10;;
57790;SDS011;43621;51.798;21.588;2023-05-24T01:17:53;10.20;;;5.80;;
57790;SDS011;43621;51.798;21.588;2023-05-24T01:26:36;9.00;;;6.30;;
57790;SDS011;43621;51.798;21.588;2023-05-24T01:30:43;11.40;;;6.60;;
57790;SDS011;43621;51.798;21.588;2023-05-24T01:34:45;8.50;;;5.90;;
57790;SDS011;43621;51.798;21.588;2023-05-24T01:38:47;8.50;;;5.70;;
57790;SDS011;43621;51.798;21.588;2023-05-24T01:42:53;9.10;;;5.20;;
57790;SDS011;43621;51.798;21.588;2023-05-24T01:47:07;12.30;;;5.90;;
57790;SDS011;43621;51.798;21.588;2023-05-24T01:51:19;12.40;;;6.90;;
57790;SDS011;43621;51.798;21.588;2023-05-24T01:55:25;11.10;;;6.60;;
57790;SDS011;43621;51.798;21.588;2023-05-24T01:59:28;11.60;;;6.60;;
57790;SDS011;43621;51.798;21.588;2023-05-24T02:03:32;10.90;;;6.10;;
57790;SDS011;43621;51.798;21.588;2023-05-24T02:07:34;12.70;;;6.10;;
57790;SDS011;43621;51.798;21.588;2023-05-24T02:11:36;10.30;;;6.60;;
57790;SDS011;43621;51.798;21.588;2023-05-24T02:15:38;8.70;;;5.20;;
57790;SDS011;43621;51.798;21.588;2023-05-24T02:19:42;12.30;;;5.80;;
57790;SDS011;43621;51.798;21.588;2023-05-24T02:23:44;10.80;;;5.70;;
57790;SDS011;43621;51.798;21.588;2023-05-24T02:27:46;10.70;;;6.10;;
57790;SDS011;43621;51.798;21.588;2023-05-24T02:31:48;8.70;;;5.20;;
57790;SDS011;43621;51.798;21.588;2023-05-24T02:35:55;9.10;;;6.00;;
57790;SDS011;43621;51.798;21.588;2023-05-24T02:39:57;10.70;;;6.10;;
57790;SDS011;43621;51.798;21.588;2023-05-24T02:43:59;7.30;;;5.70;;
57790;SDS011;43621;51.798;21.588;2023-05-24T02:48:01;11.30;;;5.60;;
57790;SDS011;43621;51.798;21.588;2023-05-24T02:52:02;9.20;;;6.00;;
57790;SDS011;43621;51.798;21.588;2023-05-24T02:56:04;9.00;;;6.30;;
57790;SDS011;43621;51.798;21.588;2023-05-24T03:00:08;10.50;;;6.00;;
57790;SDS011;43621;51.798;21.588;2023-05-24T03:04:11;13.50;;;6.50;;
57790;SDS011;43621;51.798;21.588;2023-05-24T03:08:13;9.50;;;5.20;;
57790;SDS011;43621;51.798;21.588;2023-05-24T03:12:15;13.80;;;6.00;;
57790;SDS011;43621;51.798;21.588;2023-05-24T03:16:17;11.40;;;6.00;;
57790;SDS011;43621;51.798;21.588;2023-05-24T03:20:20;12.10;;;6.00;;
57790;SDS011;43621;51.798;21.588;2023-05-24T03:24:23;15.50;;;6.40;;
57790;SDS011;43621;51.798;21.588;2023-05-24T03:28:26;9.70;;;6.50;;
57790;SDS011;43621;51.798;21.588;2023-05-24T03:32:28;10.10;;;6.10;;
57790;SDS011;43621;51.798;21.588;2023-05-24T03:36:30;13.80;;;6.80;;
57790;SDS011;43621;51.798;21.588;2023-05-24T03:40:33;7.90;;;5.80;;
57790;SDS011;43621;51.798;21.588;2023-05-24T03:44:34;8.40;;;5.40;;
57790;SDS011;43621;51.798;21.588;2023-05-24T03:48:36;9.40;;;6.10;;
57790;SDS011;43621;51.798;21.588;2023-05-24T03:52:38;11.80;;;6.20;;
57790;SDS011;43621;51.798;21.588;2023-05-24T03:56:40;9.20;;;5.50;;
57790;SDS011;43621;51.798;21.588;2023-05-24T04:00:42;7.70;;;5.60;;
57790;SDS011;43621;51.798;21.588;2023-05-24T04:04:43;9.30;;;5.90;;
57790;SDS011;43621;51.798;21.588;2023-05-24T04:08:46;9.70;;;6.20;;
57790;SDS011;43621;51.798;21.588;2023-05-24T04:12:48;11.30;;;6.20;;
57790;SDS011;43621;51.798;21.588;2023-05-24T04:16:50;8.40;;;5.70;;
57790;SDS011;43621;51.798;21.588;2023-05-24T04:20:52;16.40;;;8.10;;
57790;SDS011;43621;51.798;21.588;2023-05-24T04:24:53;9.60;;;6.30;;
57790;SDS011;43621;51.798;21.588;2023-05-24T04:28:56;15.40;;;7.20;;
57790;SDS011;43621;51.798;21.588;2023-05-24T04:32:58;13.20;;;7.30;;
57790;SDS011;43621;51.798;21.588;2023-05-24T04:37:00;13.50;;;6.20;;
57790;SDS011;43621;51.798;21.588;2023-05-24T04:41:02;14.20;;;6.50;;
57790;SDS011;43621;51.798;21.588;2023-05-24T04:45:04;15.70;;;5.80;;
57790;SDS011;43621;51.798;21.588;2023-05-24T04:49:07;9.90;;;6.50;;
57790;SDS011;43621;51.798;21.588;2023-05-24T04:53:10;11.20;;;5.30;;
57790;SDS011;43621;51.798;21.588;2023-05-24T04:57:12;7.10;;;5.20;;
57790;SDS011;43621;51.798;21.588;2023-05-24T05:01:14;9.70;;;6.20;;
57790;SDS011;43621;51.798;21.588;2023-05-24T05:05:16;9.40;;;6.40;;
57790;SDS011;43621;51.798;21.588;2023-05-24T05:09:17;7.80;;;5.70;;
57790;SDS011;43621;51.798;21.588;2023-05-24T05:13:19;9.20;;;5.60;;
57790;SDS011;43621;51.798;21.588;2023-05-24T05:17:21;12.80;;;6.50;;
57790;SDS011;43621;51.798;21.588;2023-05-24T05:21:23;9.00;;;5.40;;
57790;SDS011;43621;51.798;21.588;2023-05-24T05:25:25;9.30;;;5.50;;
57790;SDS011;43621;51.798;21.588;2023-05-24T05:29:26;7.80;;;5.00;;
57790;SDS011;43621;51.798;21.588;2023-05-24T05:33:31;9.10;;;5.40;;
57790;SDS011;43621;51.798;21.588;2023-05-24T05:37:33;8.60;;;5.30;;
57790;SDS011;43621;51.798;21.588;2023-05-24T05:41:37;10.50;;;6.00;;
57790;SDS011;43621;51.798;21.588;2023-05-24T05:45:39;10.70;;;5.70;;
57790;SDS011;43621;51.798;21.588;2023-05-24T05:49:41;11.80;;;5.80;;
57790;SDS011;43621;51.798;21.588;2023-05-24T05:53:43;8.80;;;5.90;;
57790;SDS011;43621;51.798;21.588;2023-05-24T05:57:45;12.70;;;5.90;;
57790;SDS011;43621;51.798;21.588;2023-05-24T06:01:47;8.90;;;5.40;;
57790;SDS011;43621;51.798;21.588;2023-05-24T06:05:49;12.50;;;5.50;;
57790;SDS011;43621;51.798;21.588;2023-05-24T06:09:51;9.10;;;6.20;;
57790;SDS011;43621;51.798;21.588;2023-05-24T06:13:53;14.10;;;6.30;;
57790;SDS011;43621;51.798;21.588;2023-05-24T06:17:55;9.50;;;5.90;;
57790;SDS011;43621;51.798;21.588;2023-05-24T06:21:57;12.60;;;5.90;;
57790;SDS011;43621;51.798;21.588;2023-05-24T06:26:00;10.80;;;5.70;;
57790;SDS011;43621;51.798;21.588;2023-05-24T06:30:02;7.80;;;5.50;;
57790;SDS011;43621;51.798;21.588;2023-05-24T06:34:04;6.70;;;4.90;;
57790;SDS011;43621;51.798;21.588;2023-05-24T06:38:05;7.60;;;5.00;;
57790;SDS011;43621;51.798;21.588;2023-05-24T06:42:07;6.20;;;4.90;;
57790;SDS011;43621;51.798;21.588;2023-05-24T06:46:09;7.20;;;5.50;;
57790;SDS011;43621;51.798;21.588;2023-05-24T06:50:11;8.00;;;5.10;;
57790;SDS011;43621;51.798;21.588;2023-05-24T06:54:12;10.20;;;5.20;;
57790;SDS011;43621;51.798;21.588;2023-05-24T06:58:14;26.70;;;8.80;;
57790;SDS011;43621;51.798;21.588;2023-05-24T07:02:16;7.60;;;5.30;;
57790;SDS011;43621;51.798;21.588;2023-05-24T07:06:18;18.00;;;5.90;;
57790;SDS011;43621;51.798;21.588;2023-05-24T07:10:20;8.20;;;5.50;;
57790;SDS011;43621;51.798;21.588;2023-05-24T07:14:22;6.30;;;5.10;;
57790;SDS011;43621;51.798;21.588;2023-05-24T07:18:26;6.90;;;5.30;;
57790;SDS011;43621;51.798;21.588;2023-05-24T07:22:27;6.50;;;5.50;;
57790;SDS011;43621;51.798;21.588;2023-05-24T07:26:30;7.80;;;5.50;;
57790;SDS011;43621;51.798;21.588;2023-05-24T07:30:32;8.00;;;5.40;;
57790;SDS011;43621;51.798;21.588;2023-05-24T07:34:34;10.30;;;5.20;;
57790;SDS011;43621;51.798;21.588;2023-05-24T07:38:36;9.30;;;5.30;;
57790;SDS011;43621;51.798;21.588;2023-05-24T07:42:39;9.20;;;5.90;;
57790;SDS011;43621;51.798;21.588;2023-05-24T07:46:42;8.60;;;4.70;;
57790;SDS011;43621;51.798;21.588;2023-05-24T07:50:43;9.10;;;5.10;;
57790;SDS011;43621;51.798;21.588;2023-05-24T07:54:48;7.00;;;5.60;;
57790;SDS011;43621;51.798;21.588;2023-05-24T07:58:50;10.50;;;5.20;;
57790;SDS011;43621;51.798;21.588;2023-05-24T08:02:52;5.90;;;5.30;;
57790;SDS011;43621;51.798;21.588;2023-05-24T08:06:54;8.40;;;5.30;;
57790;SDS011;43621;51.798;21.588;2023-05-24T08:10:58;8.00;;;5.10;;
57790;SDS011;43621;51.798;21.588;2023-05-24T08:14:59;6.90;;;5.90;;
57790;SDS011;43621;51.798;21.588;2023-05-24T08:19:01;6.80;;;6.20;;
57790;SDS011;43621;51.798;21.588;2023-05-24T08:23:03;7.10;;;6.20;;
57790;SDS011;43621;51.798;21.588;2023-05-24T08:27:05;7.60;;;6.90;;
57790;SDS011;43621;51.798;21.588;2023-05-24T08:31:08;7.50;;;6.80;;
57790;SDS011;43621;51.798;21.588;2023-05-24T08:35:09;7.40;;;6.70;;
57790;SDS011;43621;51.798;21.588;2023-05-24T08:39:11;6.20;;;5.60;;
57790;SDS011;43621;51.798;21.588;2023-05-24T08:43:13;5.30;;;4.90;;
57790;SDS011;43621;51.798;21.588;2023-05-24T08:47:15;5.90;;;4.80;;
57790;SDS011;43621;51.798;21.588;2023-05-24T08:51:18;5.70;;;5.10;;
57790;SDS011;43621;51.798;21.588;2023-05-24T08:55:21;8.20;;;5.80;;
57790;SDS011;43621;51.798;21.588;2023-05-24T08:59:23;6.10;;;5.50;;
57790;SDS011;43621;51.798;21.588;2023-05-24T09:03:25;7.10;;;5.80;;
57790;SDS011;43621;51.798;21.588;2023-05-24T09:07:28;6.50;;;5.90;;
57790;SDS011;43621;51.798;21.588;2023-05-24T09:11:30;7.70;;;7.00;;
57790;SDS011;43621;51.798;21.588;2023-05-24T09:15:33;8.30;;;7.60;;
57790;SDS011;43621;51.798;21.588;2023-05-24T09:19:35;10.30;;;8.90;;
57790;SDS011;43621;51.798;21.588;2023-05-24T09:23:37;10.60;;;9.60;;
57790;SDS011;43621;51.798;21.588;2023-05-24T09:27:39;9.60;;;9.00;;
57790;SDS011;43621;51.798;21.588;2023-05-24T09:31:41;10.80;;;10.00;;
57790;SDS011;43621;51.798;21.588;2023-05-24T09:35:43;10.50;;;9.80;;
57790;SDS011;43621;51.798;21.588;2023-05-24T09:39:45;11.30;;;10.50;;
57790;SDS011;43621;51.798;21.588;2023-05-24T09:43:51;10.00;;;9.20;;
57790;SDS011;43621;51.798;21.588;2023-05-24T09:47:53;10.30;;;9.60;;
57790;SDS011;43621;51.798;21.588;2023-05-24T09:51:55;11.00;;;10.30;;
57790;SDS011;43621;51.798;21.588;2023-05-24T09:55:57;11.30;;;10.50;;
57790;SDS011;43621;51.798;21.588;2023-05-24T10:00:01;10.60;;;9.90;;
57790;SDS011;43621;51.798;21.588;2023-05-24T10:04:08;10.20;;;9.20;;
57790;SDS011;43621;51.798;21.588;2023-05-24T10:08:10;9.30;;;8.10;;
57790;SDS011;43621;51.798;21.588;2023-05-24T10:12:14;8.80;;;7.90;;
57790;SDS011;43621;51.798;21.588;2023-05-24T10:16:16;9.80;;;9.00;;
57790;SDS011;43621;51.798;21.588;2023-05-24T10:20:18;9.70;;;9.00;;
57790;SDS011;43621;51.798;21.588;2023-05-24T10:24:23;9.60;;;8.90;;
57790;SDS011;43621;51.798;21.588;2023-05-24T10:28:29;10.30;;;9.60;;
57790;SDS011;43621;51.798;21.588;2023-05-24T10:32:35;10.30;;;9.60;;
57790;SDS011;43621;51.798;21.588;2023-05-24T10:36:39;9.80;;;9.10;;
57790;SDS011;43621;51.798;21.588;2023-05-24T10:40:41;9.90;;;8.90;;
57790;SDS011;43621;51.798;21.588;2023-05-24T10:44:44;13.10;;;9.20;;
57790;SDS011;43621;51.798;21.588;2023-05-24T10:48:59;10.00;;;8.90;;
57790;SDS011;43621;51.798;21.588;2023-05-24T10:53:23;17.90;;;9.20;;
57790;SDS011;43621;51.798;21.588;2023-05-24T10:57:26;8.90;;;8.10;;
57790;SDS011;43621;51.798;21.588;2023-05-24T11:01:31;6.50;;;6.00;;
57790;SDS011;43621;51.798;21.588;2023-05-24T11:22:15;11.40;;;3.80;;
57790;SDS011;43621;51.798;21.588;2023-05-24T11:26:18;12.00;;;5.60;;
57790;SDS011;43621;51.798;21.588;2023-05-24T11:30:20;5.30;;;4.30;;
57790;SDS011;43621;51.798;21.588;2023-05-24T11:34:22;8.90;;;4.60;;
57790;SDS011;43621;51.798;21.588;2023-05-24T11:38:25;10.60;;;4.50;;
57790;SDS011;43621;51.798;21.588;2023-05-24T11:42:27;7.80;;;4.00;;
57790;SDS011;43621;51.798;21.588;2023-05-24T11:46:30;8.10;;;4.40;;
57790;SDS011;43621;51.798;21.588;2023-05-24T11:50:36;10.10;;;4.70;;
57790;SDS011;43621;51.798;21.588;2023-05-24T11:54:39;6.20;;;3.90;;
57790;SDS011;43621;51.798;21.588;2023-05-24T11:58:43;7.60;;;4.40;;
57790;SDS011;43621;51.798;21.588;2023-05-24T12:02:50;7.10;;;4.50;;
57790;SDS011;43621;51.798;21.588;2023-05-24T12:06:53;8.00;;;4.50;;
57790;SDS011;43621;51.798;21.588;2023-05-24T12:10:55;10.00;;;5.00;;
57790;SDS011;43621;51.798;21.588;2023-05-24T12:14:57;11.30;;;5.40;;
57790;SDS011;43621;51.798;21.588;2023-05-24T12:19:00;12.50;;;5.10;;
57790;SDS011;43621;51.798;21.588;2023-05-24T12:23:02;9.60;;;4.70;;
57790;SDS011;43621;51.798;21.588;2023-05-24T12:27:03;6.40;;;4.90;;
57790;SDS011;43621;51.798;21.588;2023-05-24T12:31:10;11.40;;;5.00;;
57790;SDS011;43621;51.798;21.588;2023-05-24T12:35:12;12.20;;;5.50;;
57790;SDS011;43621;51.798;21.588;2023-05-24T12:43:23;11.60;;;5.50;;
57790;SDS011;43621;51.798;21.588;2023-05-24T12:47:25;8.50;;;5.20;;
57790;SDS011;43621;51.798;21.588;2023-05-24T12:51:27;10.20;;;5.30;;
57790;SDS011;43621;51.798;21.588;2023-05-24T12:55:29;8.30;;;5.40;;
57790;SDS011;43621;51.798;21.588;2023-05-24T12:59:31;9.60;;;5.50;;
57790;SDS011;43621;51.798;21.588;2023-05-24T13:03:34;8.90;;;5.60;;
57790;SDS011;43621;51.798;21.588;2023-05-24T13:07:36;9.90;;;5.80;;
57790;SDS011;43621;51.798;21.588;2023-05-24T13:11:40;12.60;;;6.10;;
57790;SDS011;43621;51.798;21.588;2023-05-24T13:15:43;11.70;;;5.70;;
57790;SDS011;43621;51.798;21.588;2023-05-24T13:19:45;9.60;;;6.50;;
57790;SDS011;43621;51.798;21.588;2023-05-24T13:23:47;14.20;;;7.30;;
57790;SDS011;43621;51.798;21.588;2023-05-24T13:27:49;14.90;;;7.40;;
57790;SDS011;43621;51.798;21.588;2023-05-24T13:31:51;10.90;;;6.30;;
57790;SDS011;43621;51.798;21.588;2023-05-24T13:35:53;10.80;;;6.60;;
57790;SDS011;43621;51.798;21.588;2023-05-24T13:39:55;8.40;;;5.80;;
57790;SDS011;43621;51.798;21.588;2023-05-24T13:43:57;14.40;;;8.80;;
57790;SDS011;43621;51.798;21.588;2023-05-24T13:47:59;8.80;;;6.10;;
57790;SDS011;43621;51.798;21.588;2023-05-24T13:52:06;9.60;;;6.90;;
57790;SDS011;43621;51.798;21.588;2023-05-24T13:56:08;11.10;;;7.00;;
57790;SDS011;43621;51.798;21.588;2023-05-24T14:00:10;9.30;;;6.90;;
57790;SDS011;43621;51.798;21.588;2023-05-24T14:04:13;11.20;;;6.80;;
57790;SDS011;43621;51.798;21.588;2023-05-24T14:08:17;10.30;;;7.00;;
57790;SDS011;43621;51.798;21.588;2023-05-24T14:12:18;7.80;;;6.10;;
57790;SDS011;43621;51.798;21.588;2023-05-24T14:16:20;9.50;;;5.70;;
57790;SDS011;43621;51.798;21.588;2023-05-24T14:20:22;9.50;;;6.10;;
57790;SDS011;43621;51.798;21.588;2023-05-24T14:24:24;11.10;;;7.50;;
57790;SDS011;43621;51.798;21.588;2023-05-24T14:28:26;10.20;;;6.80;;
57790;SDS011;43621;51.798;21.588;2023-05-24T14:32:28;41.80;;;8.60;;
57790;SDS011;43621;51.798;21.588;2023-05-24T14:36:30;9.40;;;6.30;;
57790;SDS011;43621;51.798;21.588;2023-05-24T14:40:32;9.90;;;6.60;;
57790;SDS011;43621;51.798;21.588;2023-05-24T14:44:34;9.30;;;6.80;;
57790;SDS011;43621;51.798;21.588;2023-05-24T14:48:36;11.90;;;7.20;;
57790;SDS011;43621;51.798;21.588;2023-05-24T14:52:41;8.90;;;6.20;;
57790;SDS011;43621;51.798;21.588;2023-05-24T14:56:43;9.10;;;7.30;;
57790;SDS011;43621;51.798;21.588;2023-05-24T15:00:45;8.50;;;6.30;;
57790;SDS011;43621;51.798;21.588;2023-05-24T15:04:47;8.60;;;6.20;;
57790;SDS011;43621;51.798;21.588;2023-05-24T15:08:49;11.20;;;6.30;;
57790;SDS011;43621;51.798;21.588;2023-05-24T15:12:52;8.50;;;5.90;;
57790;SDS011;43621;51.798;21.588;2023-05-24T15:16:54;7.60;;;5.20;;
57790;SDS011;43621;51.798;21.588;2023-05-24T15:20:56;8.70;;;5.30;;
57790;SDS011;43621;51.798;21.588;2023-05-24T15:24:58;10.70;;;5.50;;
57790;SDS011;43621;51.798;21.588;2023-05-24T15:29:00;9.00;;;5.90;;
57790;SDS011;43621;51.798;21.588;2023-05-24T15:33:04;14.20;;;6.50;;
57790;SDS011;43621;51.798;21.588;2023-05-24T15:37:06;6.50;;;5.80;;
57790;SDS011;43621;51.798;21.588;2023-05-24T15:41:08;6.90;;;5.30;;
57790;SDS011;43621;51.798;21.588;2023-05-24T15:45:10;11.30;;;6.10;;
57790;SDS011;43621;51.798;21.588;2023-05-24T15:49:12;7.70;;;5.70;;
57790;SDS011;43621;51.798;21.588;2023-05-24T15:53:14;7.40;;;6.10;;
57790;SDS011;43621;51.798;21.588;2023-05-24T15:57:15;8.10;;;6.20;;
57790;SDS011;43621;51.798;21.588;2023-05-24T16:01:17;9.40;;;6.20;;
57790;SDS011;43621;51.798;21.588;2023-05-24T16:05:19;9.90;;;6.70;;
57790;SDS011;43621;51.798;21.588;2023-05-24T16:09:21;12.50;;;6.60;;
57790;SDS011;43621;51.798;21.588;2023-05-24T16:13:23;12.60;;;7.80;;
57790;SDS011;43621;51.798;21.588;2023-05-24T16:17:24;11.60;;;6.50;;
57790;SDS011;43621;51.798;21.588;2023-05-24T16:21:26;10.20;;;6.90;;
57790;SDS011;43621;51.798;21.588;2023-05-24T16:25:29;7.50;;;6.10;;
57790;SDS011;43621;51.798;21.588;2023-05-24T16:29:30;7.10;;;6.30;;
57790;SDS011;43621;51.798;21.588;2023-05-24T16:33:32;12.10;;;5.90;;
57790;SDS011;43621;51.798;21.588;2023-05-24T16:37:34;8.70;;;5.60;;
57790;SDS011;43621;51.798;21.588;2023-05-24T16:41:36;16.80;;;7.40;;
57790;SDS011;43621;51.798;21.588;2023-05-24T16:45:40;11.30;;;6.20;;
57790;SDS011;43621;51.798;21.588;2023-05-24T16:49:42;9.00;;;6.30;;
57790;SDS011;43621;51.798;21.588;2023-05-24T16:53:44;8.60;;;6.20;;
57790;SDS011;43621;51.798;21.588;2023-05-24T16:57:45;8.90;;;6.70;;
57790;SDS011;43621;51.798;21.588;2023-05-24T17:01:47;11.80;;;6.00;;
57790;SDS011;43621;51.798;21.588;2023-05-24T17:05:50;8.70;;;5.90;;
57790;SDS011;43621;51.798;21.588;2023-05-24T17:09:53;9.20;;;6.10;;
57790;SDS011;43621;51.798;21.588;2023-05-24T17:13:55;9.70;;;6.40;;
57790;SDS011;43621;51.798;21.588;2023-05-24T17:17:57;7.60;;;5.70;;
57790;SDS011;43621;51.798;21.588;2023-05-24T17:21:59;8.90;;;6.40;;
57790;SDS011;43621;51.798;21.588;2023-05-24T17:26:01;9.00;;;6.20;;
57790;SDS011;43621;51.798;21.588;2023-05-24T17:30:05;9.70;;;6.50;;
57790;SDS011;43621;51.798;21.588;2023-05-24T17:34:07;11.20;;;6.50;;
57790;SDS011;43621;51.798;21.588;2023-05-24T17:38:09;8.30;;;5.70;;
57790;SDS011;43621;51.798;21.588;2023-05-24T17:42:11;8.60;;;6.40;;
57790;SDS011;43621;51.798;21.588;2023-05-24T17:46:13;9.70;;;6.40;;
57790;SDS011;43621;51.798;21.588;2023-05-24T17:50:15;10.60;;;6.70;;
57790;SDS011;43621;51.798;21.588;2023-05-24T17:54:17;10.50;;;6.50;;
57790;SDS011;43621;51.798;21.588;2023-05-24T17:58:18;8.30;;;6.40;;
57790;SDS011;43621;51.798;21.588;2023-05-24T18:02:20;9.00;;;6.80;;
57790;SDS011;43621;51.798;21.588;2023-05-24T18:06:22;8.90;;;7.10;;
57790;SDS011;43621;51.798;21.588;2023-05-24T18:10:24;8.80;;;6.90;;
57790;SDS011;43621;51.798;21.588;2023-05-24T18:14:26;11.10;;;7.10;;
57790;SDS011;43621;51.798;21.588;2023-05-24T18:18:29;10.30;;;7.40;;
57790;SDS011;43621;51.798;21.588;2023-05-24T18:22:30;8.60;;;6.70;;
57790;SDS011;43621;51.798;21.588;2023-05-24T18:26:32;10.80;;;8.10;;
57790;SDS011;43621;51.798;21.588;2023-05-24T18:30:34;9.70;;;6.90;;
57790;SDS011;43621;51.798;21.588;2023-05-24T18:34:36;12.80;;;8.10;;
57790;SDS011;43621;51.798;21.588;2023-05-24T18:38:38;12.20;;;8.70;;
57790;SDS011;43621;51.798;21.588;2023-05-24T18:42:40;16.30;;;8.50;;
57790;SDS011;43621;51.798;21.588;2023-05-24T18:46:42;11.80;;;8.70;;
57790;SDS011;43621;51.798;21.588;2023-05-24T18:50:45;13.20;;;9.10;;
57790;SDS011;43621;51.798;21.588;2023-05-24T18:54:47;12.80;;;8.30;;
57790;SDS011;43621;51.798;21.588;2023-05-24T18:58:49;12.30;;;9.40;;
57790;SDS011;43621;51.798;21.588;2023-05-24T19:02:52;14.70;;;9.50;;
57790;SDS011;43621;51.798;21.588;2023-05-24T19:06:55;12.60;;;9.60;;
57790;SDS011;43621;51.798;21.588;2023-05-24T19:10:57;13.10;;;9.90;;
57790;SDS011;43621;51.798;21.588;2023-05-24T19:14:59;13.30;;;10.70;;
57790;SDS011;43621;51.798;21.588;2023-05-24T19:19:03;14.60;;;10.60;;
57790;SDS011;43621;51.798;21.588;2023-05-24T19:23:05;16.30;;;9.30;;
57790;SDS011;43621;51.798;21.588;2023-05-24T19:27:06;16.90;;;10.20;;
57790;SDS011;43621;51.798;21.588;2023-05-24T19:31:08;15.30;;;9.80;;
57790;SDS011;43621;51.798;21.588;2023-05-24T19:35:10;13.60;;;9.50;;
57790;SDS011;43621;51.798;21.588;2023-05-24T19:39:12;13.10;;;9.40;;
57790;SDS011;43621;51.798;21.588;2023-05-24T19:43:14;13.10;;;10.30;;
57790;SDS011;43621;51.798;21.588;2023-05-24T19:47:16;16.00;;;11.10;;
57790;SDS011;43621;51.798;21.588;2023-05-24T19:51:18;16.00;;;9.90;;
57790;SDS011;43621;51.798;21.588;2023-05-24T19:55:20;12.00;;;9.20;;
57790;SDS011;43621;51.798;21.588;2023-05-24T19:59:22;14.80;;;10.20;;
57790;SDS011;43621;51.798;21.588;2023-05-24T20:03:23;15.30;;;10.70;;
57790;SDS011;43621;51.798;21.588;2023-05-24T20:07:26;15.20;;;10.80;;
57790;SDS011;43621;51.798;21.588;2023-05-24T20:11:28;14.40;;;10.90;;
57790;SDS011;43621;51.798;21.588;2023-05-24T20:15:30;16.40;;;12.50;;
57790;SDS011;43621;51.798;21.588;2023-05-24T20:19:31;14.10;;;11.90;;
57790;SDS011;43621;51.798;21.588;2023-05-24T20:23:33;14.70;;;12.80;;
57790;SDS011;43621;51.798;21.588;2023-05-24T20:27:36;15.50;;;12.80;;
57790;SDS011;43621;51.798;21.588;2023-05-24T20:31:41;14.70;;;12.80;;
57790;SDS011;43621;51.798;21.588;2023-05-24T20:35:43;18.00;;;14.00;;
57790;SDS011;43621;51.798;21.588;2023-05-24T20:39:45;16.30;;;12.20;;
57790;SDS011;43621;51.798;21.588;2023-05-24T20:43:46;15.60;;;12.40;;
57790;SDS011;43621;51.798;21.588;2023-05-24T20:47:48;18.90;;;12.40;;
57790;SDS011;43621;51.798;21.588;2023-05-24T20:51:51;14.60;;;12.90;;
57790;SDS011;43621;51.798;21.588;2023-05-24T20:55:52;15.50;;;12.60;;
57790;SDS011;43621;51.798;21.588;2023-05-24T20:59:56;16.40;;;11.90;;
57790;SDS011;43621;51.798;21.588;2023-05-24T21:03:59;15.40;;;12.60;;
57790;SDS011;43621;51.798;21.588;2023-05-24T21:08:01;15.70;;;13.00;;
57790;SDS011;43621;51.798;21.588;2023-05-24T21:12:04;15.40;;;13.00;;
57790;SDS011;43621;51.798;21.588;2023-05-24T21:16:06;16.30;;;13.20;;
57790;SDS011;43621;51.798;21.588;2023-05-24T21:20:09;15.70;;;13.10;;
57790;SDS011;43621;51.798;21.588;2023-05-24T21:24:11;16.50;;;12.60;;
57790;SDS011;43621;51.798;21.588;2023-05-24T21:28:12;16.40;;;11.80;;
57790;SDS011;43621;51.798;21.588;2023-05-24T21:32:14;17.10;;;13.00;;
57790;SDS011;43621;51.798;21.588;2023-05-24T21:36:16;14.20;;;12.50;;
57790;SDS011;43621;51.798;21.588;2023-05-24T21:40:18;17.80;;;13.20;;
57790;SDS011;43621;51.798;21.588;2023-05-24T21:44:20;17.50;;;13.00;;
57790;SDS011;43621;51.798;21.588;2023-05-24T21:48:22;18.10;;;13.80;;
57790;SDS011;43621;51.798;21.588;2023-05-24T21:52:24;17.10;;;13.30;;
57790;SDS011;43621;51.798;21.588;2023-05-24T21:56:25;16.80;;;13.20;;
57790;SDS011;43621;51.798;21.588;2023-05-24T22:00:28;20.60;;;14.00;;
57790;SDS011;43621;51.798;21.588;2023-05-24T22:04:29;20.10;;;13.90;;
57790;SDS011;43621;51.798;21.588;2023-05-24T22:08:31;18.00;;;13.30;;
57790;SDS011;43621;51.798;21.588;2023-05-24T22:12:33;20.20;;;14.20;;
57790;SDS011;43621;51.798;21.588;2023-05-24T22:16:35;18.20;;;13.90;;
57790;SDS011;43621;51.798;21.588;2023-05-24T22:20:37;19.30;;;14.10;;
57790;SDS011;43621;51.798;21.588;2023-05-24T22:24:38;17.80;;;13.80;;
57790;SDS011;43621;51.798;21.588;2023-05-24T22:28:50;17.90;;;14.20;;
57790;SDS011;43621;51.798;21.588;2023-05-24T22:32:53;22.60;;;15.50;;
57790;SDS011;43621;51.798;21.588;2023-05-24T22:36:56;18.80;;;13.20;;
57790;SDS011;43621;51.798;21.588;2023-05-24T22:40:58;18.80;;;14.00;;
57790;SDS011;43621;51.798;21.588;2023-05-24T22:45:00;20.40;;;14.60;;
57790;SDS011;43621;51.798;21.588;2023-05-24T22:49:01;21.30;;;15.20;;
57790;SDS011;43621;51.798;21.588;2023-05-24T22:53:06;17.70;;;14.60;;
57790;SDS011;43621;51.798;21.588;2023-05-24T22:57:09;16.80;;;13.10;;
57790;SDS011;43621;51.798;21.588;2023-05-24T23:01:11;16.90;;;13.80;;
57790;SDS011;43621;51.798;21.588;2023-05-24T23:05:12;24.20;;;14.60;;
57790;SDS011;43621;51.798;21.588;2023-05-24T23:09:14;23.90;;;15.70;;
57790;SDS011;43621;51.798;21.588;2023-05-24T23:13:17;17.20;;;13.80;;
57790;SDS011;43621;51.798;21.588;2023-05-24T23:17:19;19.10;;;14.80;;
57790;SDS011;43621;51.798;21.588;2023-05-24T23:21:22;22.30;;;15.70;;
57790;SDS011;43621;51.798;21.588;2023-05-24T23:25:26;21.00;;;15.30;;
57790;SDS011;43621;51.798;21.588;2023-05-24T23:29:28;20.80;;;15.30;;
57790;SDS011;43621;51.798;21.588;2023-05-24T23:33:30;19.20;;;15.40;;
57790;SDS011;43621;51.798;21.588;2023-05-24T23:37:32;17.50;;;14.70;;
57790;SDS011;43621;51.798;21.588;2023-05-24T23:41:33;19.40;;;14.80;;
57790;SDS011;43621;51.798;21.588;2023-05-24T23:45:35;19.50;;;14.40;;
57790;SDS011;43621;51.798;21.588;2023-05-24T23:49:37;21.00;;;15.20;;
57790;SDS011;43621;51.798;21.588;2023-05-24T23:53:39;21.80;;;15.10;;
57790;SDS011;43621;51.798;21.588;2023-05-24T23:57:41;19.50;;;14.50;;
